X  Close Metar Aviation Weather Data     KVAD Moody Air Force Base
Temperature
77°F Temperature
75°F Dewpoint
94% Humidity



Wind
0 MPH
0 KM/H
0 M/S
0 KTS



Calm
North
Current Conditions

Light Rain Light Rain
Pressure 1017.62 (hPa) - 30.05 (inHg)
Visibility 10 (mile) - 16.1 (km)
Airport
Airport-code KVAD

Location: Moody Air Force Base
Distance: 5 (mi)

Metar:
KVAD 060356Z AUTO 00000KT 10SM -RA CLR 25/24 A3005 RMK AO2 RAB06E08DZB08E15DZB19E25RAB25E31DZB31E33RAB33 SLP176 P0001 T02540243 $

Time: 05-07-2022 23:56 EDT